East Grip

KL  EN  DA
ASIAQ
Weather Now GREENLAND SURVEY
Updated [WGT/WGST] Temperature [°C] Wind [m/s] Air pressure [hPa] Relative humidity [%] Precipitation [mm]
Present Wind chill Speed Max
24.09 03:00-43,50,05,6 ⇒n/a72169n/a
24.09 02:00-43,60,05,8 ⇗n/a72169n/a
24.09 01:00-44,00,04,9 ⇒n/a72269n/a
24.09 00:00-43,40,05,3 ⇒n/a72269n/a
23.09 23:00-42,70,05,9 ⇗n/a72270n/a
23.09 22:00-42,80,05,1 ⇗n/a72270n/a
23.09 21:00-42,60,05,1 ⇒n/a72270n/a
23.09 20:00-41,70,05,5 ⇗n/a72270n/a
23.09 19:00-40,70,04,0 ⇒n/a72271n/a
23.09 18:00-39,80,04,5 ⇒n/a72269n/a
23.09 17:00-38,80,03,8 ⇗n/a72268n/a
23.09 16:00-37,30,04,4 ⇗n/a72268n/a
23.09 15:00-37,40,02,8 ⇗n/a72267n/a
23.09 14:00-37,70,03,9 ⇗n/a72266n/a
23.09 13:00-38,10,04,7 ⇗n/a72267n/a
23.09 12:00-39,50,04,2 ⇗n/a72266n/a
23.09 11:00-39,50,04,2 ⇗n/a72268n/a
23.09 10:00-39,80,05,4 ⇗n/a72270n/a
23.09 09:00-41,00,05,7 ⇗n/a72270n/a
23.09 08:00-41,50,05,2 ⇗n/a72270n/a
23.09 07:00-40,30,04,0 ⇗n/a72272n/a
23.09 06:00-37,30,03,9 ⇗n/a72173n/a
23.09 05:00-35,60,03,4 ⇗n/a72174n/a
23.09 04:00-35,30,02,5 ⇗n/a72175n/a
23.09 03:00-36,60,02,1 ⇗n/a72174n/a
Position: (75.6247,-35.9748)

[Back]